| time (UTC) | temp F | wind direction | speed MPH | gust MPH | rain 1hr in | rain 24hr in | rain mn in | humidity % | barometer mb |
| 20260505021513 | 41 | 198 | 1.0 | 5.0 | 0.00 | 0.07 | 0.02 | 79 | 1004.8 |
| 20260505020003 | 42 | 143 | 0.0 | 4.0 | 0.00 | 0.07 | 0.02 | 79 | 1004.5 |
| 20260505014609 | 42 | 116 | 0.0 | 2.0 | 0.00 | 0.07 | 0.02 | 78 | 1004.4 |
| 20260505013052 | 43 | 111 | 0.0 | 8.0 | 0.00 | 0.07 | 0.02 | 77 | 1004.3 |
| 20260505011538 | 43 | 117 | 0.0 | 9.0 | 0.00 | 0.07 | 0.02 | 75 | 1004.3 |
| 20260505010042 | 43 | 155 | 0.0 | 4.0 | 0.01 | 0.07 | 0.02 | 75 | 1004.2 |
| 20260505004546 | 43 | 174 | 0.0 | 2.0 | 0.02 | 0.07 | 0.02 | 76 | 1004.0 |
| 20260505003029 | 43 | 173 | 0.0 | 10.0 | 0.02 | 0.07 | 0.02 | 77 | 1004.1 |
| 20260505001532 | 43 | 224 | 4.0 | 10.0 | 0.02 | 0.07 | 0.02 | 75 | 1004.3 |
| 20260505000039 | 43 | 190 | 4.0 | 11.0 | 0.01 | 0.06 | 0.01 | 71 | 1004.7 |
| 20260504234518 | 46 | 138 | 0.0 | 2.0 | 0.00 | 0.05 | 0.00 | 62 | 1004.6 |
| 20260504233021 | 46 | 56 | 0.0 | 3.0 | 0.00 | 0.05 | 0.00 | 60 | 1004.3 |
| 20260504231516 | 46 | 175 | 0.0 | 3.0 | 0.00 | 0.05 | 0.00 | 62 | 1003.8 |
| 20260504230019 | 47 | 279 | 0.0 | 12.0 | 0.00 | 0.05 | 0.00 | 62 | 1003.7 |
| 20260504224523 | 47 | 309 | 2.0 | 12.0 | 0.01 | 0.05 | 0.00 | 59 | 1003.3 |
| 20260504223014 | 47 | 123 | 5.0 | 15.0 | 0.05 | 0.05 | 0.00 | 57 | 1003.2 |
| 20260504221510 | 47 | 32 | 3.0 | 16.0 | 0.05 | 0.05 | 0.00 | 59 | 1003.0 |
| 20260504220014 | 48 | 138 | 1.0 | 13.0 | 0.05 | 0.05 | 0.00 | 64 | 1002.4 |
| 20260504214502 | 47 | 219 | 1.0 | 14.0 | 0.04 | 0.04 | 0.04 | 67 | 1002.3 |
| 20260504213105 | 56 | 262 | 1.0 | 6.0 | 0.00 | 0.00 | 0.00 | 50 | 1002.0 |
| 20260504211551 | 56 | 88 | 1.0 | 6.0 | 0.00 | 0.00 | 0.00 | 36 | 1001.9 |
| 20260504210047 | 59 | 288 | 2.0 | 13.0 | 0.00 | 0.00 | 0.00 | 33 | 1001.9 |
| 20260504204539 | 59 | 104 | 5.0 | 12.0 | 0.00 | 0.00 | 0.00 | 34 | 1002.2 |
| 20260504203041 | 59 | 348 | 4.0 | 10.0 | 0.00 | 0.00 | 0.00 | 37 | 1002.6 |
| 20260504201535 | 58 | 132 | 0.0 | 6.0 | 0.00 | 0.00 | 0.00 | 38 | 1003.0 |
| 20260504200038 | 56 | 42 | 1.0 | 10.0 | 0.00 | 0.00 | 0.00 | 41 | 1003.3 |
| 20260504194542 | 50 | 77 | 1.0 | 8.0 | 0.00 | 0.00 | 0.00 | 53 | 1003.7 |
| 20260504193036 | 50 | 286 | 4.0 | 11.0 | 0.00 | 0.00 | 0.00 | 48 | 1004.6 |
| 20260504191542 | 53 | 13 | 1.0 | 8.0 | 0.00 | 0.00 | 0.00 | 45 | 1003.9 |
| 20260504190036 | 55 | 244 | 3.0 | 10.0 | 0.00 | 0.00 | 0.00 | 38 | 1003.4 |
| 20260504184530 | 57 | 86 | 7.0 | 11.0 | 0.00 | 0.00 | 0.00 | 35 | 1003.2 |
| 20260504183033 | 54 | 284 | 0.0 | 4.0 | 0.00 | 0.00 | 0.00 | 38 | 1003.4 |
| 20260504181531 | 55 | 291 | 4.0 | 16.0 | 0.00 | 0.00 | 0.00 | 41 | 1003.4 |
| 20260504180018 | 56 | 61 | 5.0 | 13.0 | 0.00 | 0.00 | 0.00 | 34 | 1003.5 |
| 20260504174522 | 57 | 97 | 1.0 | 8.0 | 0.00 | 0.00 | 0.00 | 34 | 1003.5 |
| 20260504173017 | 59 | 32 | 3.0 | 10.0 | 0.00 | 0.00 | 0.00 | 33 | 1003.6 |
| 20260504171508 | 60 | 76 | 2.0 | 12.0 | 0.00 | 0.00 | 0.00 | 30 | 1004.1 |
| 20260504081538 | 37 | 264 | 0.0 | 3.0 | 0.00 | 0.00 | 0.00 | 55 | 1005.7 |
| 20260504044528 | 46 | 299 | 2.0 | 4.0 | 0.00 | 0.00 | 0.00 | 44 | 1007.6 |
| 20260504043050 | 49 | 261 | 0.0 | 4.0 | 0.00 | 0.00 | 0.00 | 39 | 1007.8 |
| 20260504041559 | 48 | 224 | 2.0 | 8.0 | 0.00 | 0.00 | 0.00 | 37 | 1007.8 |
| 20260504040042 | 46 | 273 | 0.0 | 4.0 | 0.00 | 0.00 | 0.00 | 41 | 1007.9 |
| 20260504034519 | 48 | 314 | 0.0 | 4.0 | 0.00 | 0.00 | 0.00 | 42 | 1008.0 |
| 20260504033013 | 50 | 276 | 0.0 | 8.0 | 0.00 | 0.00 | 0.00 | 37 | 1008.1 |
| 20260504031518 | 50 | 261 | 2.0 | 9.0 | 0.00 | 0.00 | 0.00 | 35 | 1007.9 |
| 20260504030021 | 50 | 322 | 1.0 | 6.0 | 0.00 | 0.00 | 0.00 | 38 | 1007.9 |
| 20260504024511 | 51 | 271 | 3.0 | 9.0 | 0.00 | 0.00 | 0.00 | 36 | 1007.7 |
| 20260504023006 | 51 | 267 | 1.0 | 9.0 | 0.00 | 0.00 | 0.00 | 34 | 1007.5 |